TimeCST,TemperatureF,Dew PointF,Humidity,Sea Level PressureIn,VisibilityMPH,Wind Direction,Wind SpeedMPH,Gust SpeedMPH,PrecipitationIn,Events,Conditions,WindDirDegrees,DateUTC
12:53 AM,37.0,28.9,73,30.25,10.0,Calm,Calm,-,N/A,,Clear,0,2012-12-13 06:53:00
1:53 AM,36.0,30.0,79,30.25,10.0,NW,4.6,-,N/A,,Clear,310,2012-12-13 07:53:00
2:53 AM,35.1,30.0,82,30.23,10.0,WNW,3.5,-,N/A,,Clear,300,2012-12-13 08:53:00
3:53 AM,35.1,30.0,82,30.23,10.0,Calm,Calm,-,N/A,,Clear,0,2012-12-13 09:53:00
4:53 AM,34.0,30.0,85,30.23,10.0,NW,3.5,-,N/A,,Clear,320,2012-12-13 10:53:00
5:53 AM,35.1,30.0,82,30.24,10.0,WNW,4.6,-,N/A,,Clear,300,2012-12-13 11:53:00
6:53 AM,35.1,30.9,85,30.25,10.0,WNW,4.6,-,N/A,,Clear,300,2012-12-13 12:53:00
7:53 AM,37.0,33.1,86,30.26,10.0,NW,3.5,-,N/A,,Clear,310,2012-12-13 13:53:00
8:53 AM,46.9,37.0,68,30.27,10.0,Calm,Calm,-,N/A,,Clear,0,2012-12-13 14:53:00
9:53 AM,52.0,39.0,61,30.28,10.0,ESE,5.8,-,N/A,,Clear,120,2012-12-13 15:53:00
10:53 AM,59.0,42.1,53,30.27,10.0,SE,9.2,-,N/A,,Partly Cloudy,140,2012-12-13 16:53:00
11:53 AM,62.1,44.1,52,30.25,10.0,SE,10.4,-,N/A,,Mostly Cloudy,140,2012-12-13 17:53:00
12:53 PM,63.0,46.0,54,30.22,10.0,SSE,10.4,-,N/A,,Overcast,160,2012-12-13 18:53:00
1:53 PM,63.0,46.9,56,30.18,10.0,SSE,11.5,-,N/A,,Overcast,160,2012-12-13 19:53:00
2:53 PM,63.0,46.9,56,30.17,10.0,SSE,11.5,-,N/A,,Overcast,160,2012-12-13 20:53:00
3:53 PM,63.0,46.0,54,30.16,10.0,SE,15.0,-,N/A,,Overcast,140,2012-12-13 21:53:00
5:53 PM,60.8,42.8,52,30.17,10.0,SE,9.2,-,N/A,,Overcast,140,2012-12-13 23:53:00
6:53 PM,60.8,39.2,45,30.19,10.0,SE,10.4,-,N/A,,Overcast,130,2012-12-14 00:53:00
7:53 PM,60.1,39.9,47,30.17,10.0,ESE,6.9,-,N/A,,Overcast,120,2012-12-14 01:53:00
8:53 PM,60.1,44.1,55,30.16,10.0,ESE,9.2,-,N/A,,Overcast,120,2012-12-14 02:53:00
9:53 PM,59.0,46.9,64,30.16,10.0,SE,9.2,-,N/A,,Overcast,130,2012-12-14 03:53:00
10:53 PM,59.0,48.0,67,30.16,10.0,ESE,6.9,-,N/A,,Overcast,120,2012-12-14 04:53:00
11:45 PM,57.2,48.2,72,30.19,10.0,SE,8.1,-,N/A,,Overcast,130,2012-12-14 05:45:00
11:53 PM,57.9,48.9,72,30.15,10.0,SE,8.1,-,N/A,,Overcast,130,2012-12-14 05:53:00